Time;durP1;ratioP1;P1;durP2;ratioP2;P2;SDS_P1;SDS_P2;PMS_P1;PMS_P2;Temp;Humidity;BMP_temperature;BMP_pressure;BME280_temperature;BME280_humidity;BME280_pressure;Samples;Min_cycle;Max_cycle;Signal;HPM_P1;HPM_P2
2023/05/22 00:00:15;;;;;;;;;;;;;;;15.78;53.14;92538.63;2051633;70;20067;-76
2023/05/22 00:02:41;;;;;;;;;;;;;;;15.70;53.17;92533.34;2053790;69;20137;-75
2023/05/22 00:05:11;;;;;;;;;;;;;;;15.55;53.39;92534.16;2051383;69;20054;-76
2023/05/22 00:07:37;;;;;;;;;;;;;;;15.56;54.10;92537.72;2051388;70;20584;-76
2023/05/22 00:10:03;;;;;;;;;;;;;;;15.58;53.77;92535.69;2053826;70;20150;-76
2023/05/22 00:12:30;;;;;;;;;;;;;;;15.59;53.90;92540.00;2051526;69;20067;-76
2023/05/22 00:15:02;;;;;;;;;;;;;;;15.52;54.19;92541.84;2055349;69;20050;-75
2023/05/22 00:17:29;;;;;;;;;;;;;;;15.49;54.96;92543.16;2053524;69;20051;-76
2023/05/22 00:19:55;;;;;;;;;;;;;;;15.61;53.91;92542.16;2051308;69;20125;-76
2023/05/22 00:22:27;;;;;;;;;;;;;;;15.55;54.12;92545.50;2051082;70;20515;-77
2023/05/22 00:24:52;;;;;;;;;;;;;;;15.56;53.81;92537.72;2051418;70;20042;-77
2023/05/22 00:27:18;;;;;;;;;;;;;;;15.36;53.84;92527.03;2050264;70;20197;-77
2023/05/22 00:29:44;;;;;;;;;;;;;;;15.56;53.21;92546.22;2051326;70;20055;-77
2023/05/22 00:32:10;;;;;;;;;;;;;;;15.32;54.24;92534.63;2051378;70;20418;-76
2023/05/22 00:34:37;;;;;;;;;;;;;;;15.34;54.59;92537.53;2050876;70;20562;-76
2023/05/22 00:37:03;;;;;;;;;;;;;;;15.35;54.76;92527.66;2050715;70;20154;-76
2023/05/22 00:39:29;;;;;;;;;;;;;;;15.38;54.08;92537.72;2050522;70;20665;-76
2023/05/22 00:41:55;;;;;;;;;;;;;;;15.19;55.04;92533.41;2050227;70;20054;-77
2023/05/22 00:44:21;;;;;;;;;;;;;;;15.31;54.16;92545.25;2047859;70;20058;-77
2023/05/22 00:46:47;;;;;;;;;;;;;;;15.22;54.82;92532.84;2051471;70;20553;-77
2023/05/22 00:49:13;;;;;;;;;;;;;;;15.15;55.22;92533.97;2051336;69;20054;-77
2023/05/22 00:51:38;;;;;;;;;;;;;;;15.15;54.83;92533.97;2050791;70;20098;-75
2023/05/22 00:54:05;;;;;;;;;;;;;;;15.19;54.80;92536.25;2048143;70;20054;-75
2023/05/22 00:56:31;;;;;;;;;;;;;;;15.14;54.78;92543.84;2050659;70;20043;-75
2023/05/22 00:58:58;;;;;;;;;;;;;;;15.14;54.75;92534.63;2050954;69;20175;-75
2023/05/22 01:01:25;;;;;;;;;;;;;;;15.10;55.26;92537.28;2051081;70;20074;-75
2023/05/22 01:03:52;;;;;;;;;;;;;;;15.08;54.36;92540.78;2050653;70;20054;-75
2023/05/22 01:06:20;;;;;;;;;;;;;;;14.93;55.52;92553.59;2050654;70;20051;-75
2023/05/22 01:08:45;;;;;;;;;;;;;;;14.94;55.70;92549.41;2051197;70;20046;-75
2023/05/22 01:11:21;;;;;;;;;;;;;;;14.82;55.62;92545.31;2051310;69;20058;-75
2023/05/22 01:13:55;;;;;;;;;;;;;;;14.74;56.37;92537.19;2050786;70;20134;-75
2023/05/22 01:16:24;;;;;;;;;;;;;;;14.95;55.09;92548.03;2050945;70;20066;-74
2023/05/22 01:18:59;;;;;;;;;;;;;;;14.49;56.78;92547.47;2050858;70;20098;-74
2023/05/22 01:21:29;;;;;;;;;;;;;;;14.47;56.55;92557.97;2050951;70;20051;-76
2023/05/22 01:24:10;;;;;;;;;;;;;;;14.55;56.32;92557.63;2051049;70;20090;-76
2023/05/22 01:26:38;;;;;;;;;;;;;;;14.45;56.80;92558.59;2051165;69;20150;-75
2023/05/22 01:29:22;;;;;;;;;;;;;;;14.56;56.64;92548.47;2050712;70;20055;-76
2023/05/22 01:31:49;;;;;;;;;;;;;;;14.47;56.52;92555.84;2051052;70;20144;-76
2023/05/22 01:34:16;;;;;;;;;;;;;;;14.55;56.30;92563.28;2050257;70;20105;-76
2023/05/22 01:36:45;;;;;;;;;;;;;;;14.42;56.92;92561.97;2051043;70;20054;-75
2023/05/22 01:39:11;;;;;;;;;;;;;;;14.30;57.84;92559.34;2050445;70;20050;-75
2023/05/22 01:41:37;;;;;;;;;;;;;;;14.47;57.02;92566.44;2047251;70;20067;-76
2023/05/22 01:44:02;;;;;;;;;;;;;;;14.47;56.76;92569.28;2050825;69;20057;-75
2023/05/22 01:46:29;;;;;;;;;;;;;;;14.36;57.30;92570.22;2051222;70;20058;-75
2023/05/22 01:48:56;;;;;;;;;;;;;;;14.25;57.80;92571.88;2053405;70;20431;-75
2023/05/22 01:51:38;;;;;;;;;;;;;;;14.31;57.49;92562.91;2051184;70;20058;-75
2023/05/22 01:54:16;;;;;;;;;;;;;;;14.31;57.50;92568.56;2051107;70;20043;-74
2023/05/22 01:57:05;;;;;;;;;;;;;;;14.32;57.60;92570.75;2050898;70;20618;-74
2023/05/22 01:59:34;;;;;;;;;;;;;;;14.23;58.03;92566.81;2049723;70;20055;-74
2023/05/22 02:02:09;;;;;;;;;;;;;;;14.19;58.60;92572.31;2050366;70;20077;-75
2023/05/22 02:04:41;;;;;;;;;;;;;;;14.16;58.23;92578.53;2047738;70;20758;-76
2023/05/22 02:07:10;;;;;;;;;;;;;;;14.17;58.04;92577.16;2051577;70;20074;-75
2023/05/22 02:09:36;;;;;;;;;;;;;;;14.21;57.58;92578.06;2053429;70;20051;-75
2023/05/22 02:12:03;;;;;;;;;;;;;;;14.19;57.63;92577.97;2050346;70;20121;-75
2023/05/22 02:14:33;;;;;;;;;;;;;;;14.18;57.82;92573.69;2050487;70;20099;-75
2023/05/22 02:17:00;;;;;;;;;;;;;;;14.26;57.63;92573.31;2050705;70;20055;-74
2023/05/22 02:19:26;;;;;;;;;;;;;;;14.09;57.76;92574.69;2050632;70;20054;-75
2023/05/22 02:21:52;;;;;;;;;;;;;;;14.10;57.09;92578.25;2053583;70;20055;-75
2023/05/22 02:24:18;;;;;;;;;;;;;;;14.10;57.67;92578.97;2053902;70;20076;-76
2023/05/22 02:26:46;;;;;;;;;;;;;;;14.08;57.83;92581.00;2051377;70;20087;-74
2023/05/22 02:29:12;;;;;;;;;;;;;;;14.02;57.96;92572.97;2050679;70;20667;-74
2023/05/22 02:31:37;;;;;;;;;;;;;;;13.93;58.92;92571.84;2051636;70;20102;-74
2023/05/22 02:34:04;;;;;;;;;;;;;;;13.88;58.98;92575.09;2051664;69;20059;-76
2023/05/22 02:36:30;;;;;;;;;;;;;;;13.99;58.72;92577.78;2050879;70;20086;-74
2023/05/22 02:38:57;;;;;;;;;;;;;;;13.86;59.28;92575.75;2050890;70;20051;-75
2023/05/22 02:41:22;;;;;;;;;;;;;;;13.86;58.47;92570.09;2051394;69;20081;-75
2023/05/22 02:43:48;;;;;;;;;;;;;;;13.97;57.89;92571.28;2051014;70;20436;-76
2023/05/22 02:46:14;;;;;;;;;;;;;;;13.85;59.28;92573.56;2051498;69;20164;-75
2023/05/22 02:48:39;;;;;;;;;;;;;;;13.90;58.47;92570.28;2051651;70;20059;-75
2023/05/22 02:51:05;;;;;;;;;;;;;;;13.89;58.79;92573.75;2051094;70;20146;-75
2023/05/22 02:53:34;;;;;;;;;;;;;;;13.97;57.85;92566.38;2051203;70;20478;-75
2023/05/22 02:56:00;;;;;;;;;;;;;;;13.90;58.46;92564.63;2051718;70;20137;-75
2023/05/22 02:58:25;;;;;;;;;;;;;;;13.86;58.89;92561.59;2051544;70;20521;-77
2023/05/22 03:00:53;;;;;;;;;;;;;;;13.74;59.28;92566.69;2051746;69;20046;-74
2023/05/22 03:03:18;;;;;;;;;;;;;;;13.79;59.65;92573.25;2051614;70;20498;-75
2023/05/22 03:05:44;;;;;;;;;;;;;;;13.77;58.83;92568.25;2053959;70;20051;-75
2023/05/22 03:08:10;;;;;;;;;;;;;;;13.74;59.73;92572.34;2051021;70;20129;-76
2023/05/22 03:10:37;;;;;;;;;;;;;;;13.70;60.17;92566.53;2051046;70;20071;-75
2023/05/22 03:13:02;;;;;;;;;;;;;;;13.72;59.80;92580.75;2050879;70;20084;-75
2023/05/22 03:15:28;;;;;;;;;;;;;;;13.70;60.27;92580.66;2051091;70;20419;-75
2023/05/22 03:17:57;;;;;;;;;;;;;;;13.68;59.72;92569.97;2051054;70;20058;-75
2023/05/22 03:20:22;;;;;;;;;;;;;;;13.75;59.78;92573.09;2053697;70;20484;-75
2023/05/22 03:22:48;;;;;;;;;;;;;;;13.76;59.72;92574.56;2048258;70;20400;-74
2023/05/22 03:25:13;;;;;;;;;;;;;;;13.80;59.30;92571.91;2051030;70;20083;-74
2023/05/22 03:27:42;;;;;;;;;;;;;;;13.84;58.86;92572.84;2053667;70;20074;-75
2023/05/22 03:30:08;;;;;;;;;;;;;;;13.82;59.47;92575.56;2051060;70;20134;-75
2023/05/22 03:32:36;;;;;;;;;;;;;;;13.78;60.10;92572.53;2050882;70;20073;-75
2023/05/22 03:35:03;;;;;;;;;;;;;;;13.80;60.39;92574.75;2050850;70;20518;-75
2023/05/22 03:37:29;;;;;;;;;;;;;;;13.82;59.98;92569.91;2051533;69;20051;-75
2023/05/22 03:39:54;;;;;;;;;;;;;;;13.93;58.30;92569.03;2053488;70;20054;-75
2023/05/22 03:42:24;;;;;;;;;;;;;;;13.86;59.09;92552.38;2050965;70;20409;-75
2023/05/22 03:44:50;;;;;;;;;;;;;;;13.95;58.79;92557.78;2051108;70;20050;-75
2023/05/22 03:47:17;;;;;;;;;;;;;;;13.87;59.71;92562.31;2051499;70;20078;-75
2023/05/22 03:49:42;;;;;;;;;;;;;;;13.83;60.02;92562.88;2051715;69;20102;-75
2023/05/22 03:52:09;;;;;;;;;;;;;;;13.82;60.41;92566.34;2050981;70;20506;-75
2023/05/22 03:54:35;;;;;;;;;;;;;;;13.87;59.36;92553.84;2051840;70;20055;-75
2023/05/22 03:57:02;;;;;;;;;;;;;;;13.83;59.91;92562.13;2052391;70;20054;-75
2023/05/22 03:59:27;;;;;;;;;;;;;;;13.88;60.46;92558.13;2053835;70;20051;-75
2023/05/22 04:01:56;;;;;;;;;;;;;;;13.85;60.99;92565.06;2051020;70;20047;-75
2023/05/22 04:04:25;;;;;;;;;;;;;;;13.96;60.62;92562.06;2050869;70;20432;-75
2023/05/22 04:06:51;;;;;;;;;;;;;;;14.13;59.40;92562.81;2051062;70;20061;-75
2023/05/22 04:09:17;;;;;;;;;;;;;;;14.07;60.25;92566.09;2051635;69;20054;-75
2023/05/22 04:11:45;;;;;;;;;;;;;;;14.08;59.98;92566.84;2050888;70;20054;-75
2023/05/22 04:14:10;;;;;;;;;;;;;;;13.96;60.26;92569.81;2051077;70;20050;-76
2023/05/22 04:16:37;;;;;;;;;;;;;;;14.14;59.65;92572.78;2053729;70;20058;-75
2023/05/22 04:19:03;;;;;;;;;;;;;;;14.26;57.06;92576.16;2051579;70;20078;-75
2023/05/22 04:21:32;;;;;;;;;;;;;;;14.26;59.89;92573.31;2048279;70;20415;-75
2023/05/22 04:23:58;;;;;;;;;;;;;;;14.31;58.70;92577.81;2051456;70;20062;-75
2023/05/22 04:26:24;;;;;;;;;;;;;;;14.36;59.81;92570.22;2051428;69;20039;-75
2023/05/22 04:28:50;;;;;;;;;;;;;;;14.40;58.86;92576.78;2053660;70;20418;-75
2023/05/22 04:31:16;;;;;;;;;;;;;;;14.53;58.54;92574.53;2050841;70;20047;-75
2023/05/22 04:33:47;;;;;;;;;;;;;;;14.53;58.11;92575.25;2050949;70;20090;-75
2023/05/22 04:36:14;;;;;;;;;;;;;;;14.72;57.33;92574.69;2053621;70;20050;-75
2023/05/22 04:38:40;;;;;;;;;;;;;;;14.75;58.02;92575.50;2050705;70;20475;-75
2023/05/22 04:41:07;;;;;;;;;;;;;;;14.69;58.02;92578.06;2051337;70;20461;-75
2023/05/22 04:43:35;;;;;;;;;;;;;;;14.84;58.14;92576.56;2050784;70;20134;-75
2023/05/22 04:46:00;;;;;;;;;;;;;;;14.91;58.35;92586.81;2051299;70;20137;-76
2023/05/22 04:48:26;;;;;;;;;;;;;;;14.92;59.06;92579.75;2051424;70;20491;-75
2023/05/22 04:50:53;;;;;;;;;;;;;;;15.10;57.26;92582.63;2053821;70;20172;-75
2023/05/22 04:53:20;;;;;;;;;;;;;;;15.13;57.26;92581.38;2053584;70;20078;-75
2023/05/22 04:55:45;;;;;;;;;;;;;;;15.21;57.81;92578.84;2050824;70;20431;-75
2023/05/22 04:58:11;;;;;;;;;;;;;;;15.12;57.71;92585.56;2050797;70;20558;-78
2023/05/22 05:00:36;;;;;;;;;;;;;;;15.00;59.11;92585.78;2053683;70;20057;-78
2023/05/22 05:03:03;;;;;;;;;;;;;;;14.91;59.03;92590.38;2050814;70;20478;-78
2023/05/22 05:05:28;;;;;;;;;;;;;;;15.08;59.18;92591.81;2053439;70;20055;-78
2023/05/22 05:07:55;;;;;;;;;;;;;;;15.26;58.81;92586.16;2050798;70;20054;-75
2023/05/22 05:10:22;;;;;;;;;;;;;;;15.32;58.69;92589.25;2051311;70;20498;-76
2023/05/22 05:12:48;;;;;;;;;;;;;;;15.45;58.37;92591.22;2053489;70;20507;-76
2023/05/22 05:15:13;;;;;;;;;;;;;;;15.56;56.77;92591.63;2053606;70;20090;-76
2023/05/22 05:17:38;;;;;;;;;;;;;;;15.63;56.65;92596.91;2050849;70;20434;-76
2023/05/22 05:20:06;;;;;;;;;;;;;;;15.71;55.45;92593.66;2051357;69;20050;-76
2023/05/22 05:22:32;;;;;;;;;;;;;;;15.52;58.50;92592.19;2050842;70;20248;-76
2023/05/22 05:24:58;;;;;;;;;;;;;;;15.66;57.10;92586.38;2053528;70;20039;-76
2023/05/22 05:27:24;;;;;;;;;;;;;;;15.76;59.16;92592.47;2050682;70;20555;-76
2023/05/22 05:29:51;;;;;;;;;;;;;;;15.87;58.82;92600.00;2051431;70;20488;-75
2023/05/22 05:32:22;;;;;;;;;;;;;;;15.97;58.29;92588.31;2050933;70;20137;-75
2023/05/22 05:35:10;;;;;;;;;;;;;;;16.10;57.28;92590.25;2051261;70;20102;-75
2023/05/22 05:37:59;;;;;;;;;;;;;;;16.13;58.05;92588.97;2050645;70;20106;-76
2023/05/22 05:40:26;;;;;;;;;;;;;;;16.23;58.18;92588.63;2053636;70;20054;-77
2023/05/22 05:42:52;;;;;;;;;;;;;;;16.33;55.62;92586.16;2050803;70;20475;-76
2023/05/22 05:45:21;;;;;;;;;;;;;;;16.38;56.20;92582.06;2051464;70;20154;-74
2023/05/22 05:47:47;;;;;;;;;;;;;;;16.29;56.68;92582.44;2054131;70;20182;-78
2023/05/22 05:50:14;;;;;;;;;;;;;;;16.25;56.42;92580.16;2051246;70;20058;-75
2023/05/22 05:52:40;;;;;;;;;;;;;;;16.27;58.20;92585.94;2050810;70;20066;-76
2023/05/22 05:55:11;;;;;;;;;;;;;;;16.39;58.03;92582.81;2050753;70;20117;-79
2023/05/22 05:57:36;;;;;;;;;;;;;;;16.57;56.13;92582.75;2053219;70;20059;-76
2023/05/22 06:00:09;;;;;;;;;;;;;;;16.47;58.00;92586.69;2053565;70;20053;-76
2023/05/22 06:02:40;;;;;;;;;;;;;;;16.66;55.84;92585.25;2053763;69;20090;-76
2023/05/22 06:05:17;;;;;;;;;;;;;;;16.73;57.15;92594.75;2050951;70;20051;-78
2023/05/22 06:07:44;;;;;;;;;;;;;;;16.74;57.65;92579.88;2050932;70;20526;-76
2023/05/22 06:10:10;;;;;;;;;;;;;;;16.92;53.99;92596.13;2053724;70;20077;-77
2023/05/22 06:12:41;;;;;;;;;;;;;;;16.77;58.04;92589.22;2053539;70;20488;-75
2023/05/22 06:15:07;;;;;;;;;;;;;;;16.88;57.81;92588.19;2053573;70;20503;-78
2023/05/22 06:17:33;;;;;;;;;;;;;;;16.91;57.07;92586.88;2050951;70;20141;-78
2023/05/22 06:20:01;;;;;;;;;;;;;;;16.99;56.70;92583.59;2053725;70;20110;-78
2023/05/22 06:22:28;;;;;;;;;;;;;;;17.04;54.52;92590.88;2048270;70;20418;-78
2023/05/22 06:24:54;;;;;;;;;;;;;;;17.14;55.39;92587.66;2051429;70;20154;-78
2023/05/22 06:27:22;;;;;;;;;;;;;;;17.14;56.90;92596.94;2050804;70;20200;-77
2023/05/22 06:29:48;;;;;;;;;;;;;;;17.22;55.13;92588.66;2050774;70;20047;-77
2023/05/22 06:32:16;;;;;;;;;;;;;;;17.23;55.30;92581.59;2053664;70;20058;-79
2023/05/22 06:34:43;;;;;;;;;;;;;;;17.27;55.48;92581.75;2048135;70;20043;-78
2023/05/22 06:37:09;;;;;;;;;;;;;;;17.37;55.32;92581.34;2053580;70;20150;-78
2023/05/22 06:39:39;;;;;;;;;;;;;;;17.40;54.11;92582.84;2053562;70;20061;-80
2023/05/22 06:42:26;;;;;;;;;;;;;;;17.44;53.67;92576.59;2051170;70;20050;-79
2023/05/22 06:45:10;;;;;;;;;;;;;;;17.40;55.10;92580.00;2051457;70;20074;-78
2023/05/22 06:47:45;;;;;;;;;;;;;;;17.62;52.77;92577.19;2053607;70;20154;-79
2023/05/22 06:50:11;;;;;;;;;;;;;;;17.72;52.21;92573.94;2053644;70;20614;-78
2023/05/22 06:52:37;;;;;;;;;;;;;;;17.81;53.49;92572.84;2053576;70;20051;-77
2023/05/22 06:55:06;;;;;;;;;;;;;;;17.81;53.16;92566.41;2050815;70;20051;-77
2023/05/22 06:57:44;;;;;;;;;;;;;;;17.92;52.14;92571.78;2053468;70;20061;-77
2023/05/22 07:00:11;;;;;;;;;;;;;;;17.90;53.58;92574.56;2050784;70;20066;-78
2023/05/22 07:02:57;;;;;;;;;;;;;;;17.91;53.58;92566.72;2051245;70;20587;-79
2023/05/22 07:05:30;;;;;;;;;;;;;;;18.10;52.43;92568.03;2053544;70;20074;-77
2023/05/22 07:08:00;;;;;;;;;;;;;;;18.15;54.12;92566.78;2051161;70;20097;-79
2023/05/22 07:10:26;;;;;;;;;;;;;;;18.18;53.53;92563.31;2051289;70;20106;-77
2023/05/22 07:12:52;;;;;;;;;;;;;;;18.29;53.36;92558.66;2053946;70;20142;-77
2023/05/22 07:15:17;;;;;;;;;;;;;;;18.32;52.63;92557.31;2051330;70;20051;-77
2023/05/22 07:17:48;;;;;;;;;;;;;;;18.45;54.23;92553.44;2051326;70;20142;-77
2023/05/22 07:20:14;;;;;;;;;;;;;;;18.56;53.34;92563.03;2054045;70;20051;-77
2023/05/22 07:22:44;;;;;;;;;;;;;;;18.58;49.12;92563.06;2051211;70;20118;-78
2023/05/22 07:25:10;;;;;;;;;;;;;;;18.78;51.27;92571.50;2051228;70;20078;-78
2023/05/22 07:27:35;;;;;;;;;;;;;;;18.88;51.19;92571.81;2051601;70;20480;-78
2023/05/22 07:30:01;;;;;;;;;;;;;;;18.87;51.71;92564.63;2051415;70;20137;-77
2023/05/22 07:32:28;;;;;;;;;;;;;;;19.06;48.37;92560.16;2051335;70;20490;-78
2023/05/22 07:34:55;;;;;;;;;;;;;;;19.29;49.51;92558.63;2051272;70;20054;-78
2023/05/22 07:37:21;;;;;;;;;;;;;;;19.40;49.69;92559.63;2052897;70;20101;-77
2023/05/22 07:39:47;;;;;;;;;;;;;;;19.42;46.42;92559.66;2051912;70;20061;-78
2023/05/22 07:42:13;;;;;;;;;;;;;;;19.52;48.74;92557.09;2051172;70;20046;-78
2023/05/22 07:44:46;;;;;;;;;;;;;;;19.60;49.08;92556.53;2053989;70;20121;-79
2023/05/22 07:47:11;;;;;;;;;;;;;;;19.68;48.84;92559.63;2051229;70;20143;-78
2023/05/22 07:49:37;;;;;;;;;;;;;;;19.52;48.55;92552.09;2051226;70;20057;-76
2023/05/22 07:52:03;;;;;;;;;;;;;;;19.54;49.66;92552.13;2051193;70;20042;-76
2023/05/22 07:54:28;;;;;;;;;;;;;;;19.74;49.30;92551.22;2053971;70;20061;-76
2023/05/22 07:56:54;;;;;;;;;;;;;;;19.97;49.24;92549.63;2051114;70;20486;-76
2023/05/22 07:59:22;;;;;;;;;;;;;;;20.05;49.36;92552.66;2051158;70;20055;-79
2023/05/22 08:01:49;;;;;;;;;;;;;;;20.15;48.33;92546.47;2053895;70;20142;-78
2023/05/22 08:04:14;;;;;;;;;;;;;;;20.21;48.60;92540.91;2051734;70;20534;-76
2023/05/22 08:06:42;;;;;;;;;;;;;;;20.36;48.65;92545.50;2053937;69;20070;-76
2023/05/22 08:09:08;;;;;;;;;;;;;;;20.38;48.86;92539.81;2051740;69;20117;-82
2023/05/22 08:11:36;;;;;;;;;;;;;;;20.67;47.82;92534.75;2051618;70;20090;-77
2023/05/22 08:14:01;;;;;;;;;;;;;;;20.84;47.83;92535.81;2053913;69;20102;-78
2023/05/22 08:16:27;;;;;;;;;;;;;;;21.09;47.96;92525.56;2051739;69;20051;-79
2023/05/22 08:18:52;;;;;;;;;;;;;;;21.64;47.51;92530.16;2051621;70;20419;-77
2023/05/22 08:21:18;;;;;;;;;;;;;;;22.01;46.50;92528.63;2051585;70;20050;-77
2023/05/22 08:23:43;;;;;;;;;;;;;;;22.13;39.25;92518.78;2051641;70;20062;-79
2023/05/22 08:26:09;;;;;;;;;;;;;;;22.56;39.61;92525.84;2051509;70;20057;-77
2023/05/22 08:28:36;;;;;;;;;;;;;;;23.37;39.55;92526.13;2051535;70;20498;-77
2023/05/22 08:31:02;;;;;;;;;;;;;;;23.24;37.63;92521.69;2051135;70;20129;-77
2023/05/22 08:33:27;;;;;;;;;;;;;;;23.30;38.26;92524.59;2051693;69;20054;-77
2023/05/22 08:35:53;;;;;;;;;;;;;;;23.96;37.70;92520.97;2051172;70;20538;-79
2023/05/22 08:38:18;;;;;;;;;;;;;;;24.43;36.27;92511.97;2051016;70;20495;-79
2023/05/22 08:40:46;;;;;;;;;;;;;;;24.90;36.75;92515.81;2051085;70;20057;-80
2023/05/22 08:43:11;;;;;;;;;;;;;;;25.43;35.39;92504.50;2051539;70;20458;-80
2023/05/22 08:45:41;;;;;;;;;;;;;;;25.39;33.72;92504.47;2051714;70;20494;-78
2023/05/22 08:48:11;;;;;;;;;;;;;;;25.49;35.01;92501.63;2051643;70;20063;-78
2023/05/22 08:50:40;;;;;;;;;;;;;;;25.42;33.96;92502.31;2051156;70;20054;-78
2023/05/22 08:53:06;;;;;;;;;;;;;;;26.08;34.67;92501.69;2051518;70;20058;-75
2023/05/22 08:55:32;;;;;;;;;;;;;;;26.36;33.71;92498.06;2051113;70;20149;-76
2023/05/22 08:57:58;;;;;;;;;;;;;;;26.66;32.11;92492.97;2051418;70;20170;-76
2023/05/22 09:00:24;;;;;;;;;;;;;;;27.53;32.08;92486.13;2053773;70;20050;-76
2023/05/22 09:02:51;;;;;;;;;;;;;;;27.87;31.91;92488.09;2051612;70;20079;-80
2023/05/22 09:05:16;;;;;;;;;;;;;;;27.58;30.57;92494.06;2051525;70;20439;-78
2023/05/22 09:07:42;;;;;;;;;;;;;;;27.51;29.70;92486.16;2051546;70;20062;-79
2023/05/22 09:10:07;;;;;;;;;;;;;;;26.85;29.32;92479.94;2051642;70;20435;-82
2023/05/22 09:12:33;;;;;;;;;;;;;;;26.86;29.82;92481.38;2051573;70;20058;-79
2023/05/22 09:15:20;;;;;;;;;;;;;;;27.38;29.65;92476.09;2051310;70;20047;-80
2023/05/22 09:17:45;;;;;;;;;;;;;;;26.70;29.04;92469.88;2053040;70;20043;-82
2023/05/22 09:20:14;;;;;;;;;;;;;;;26.40;28.79;92465.59;2051074;70;20050;-80
2023/05/22 09:22:39;;;;;;;;;;;;;;;27.04;28.79;92469.03;2051608;70;20141;-79
2023/05/22 09:25:08;;;;;;;;;;;;;;;26.86;30.27;92466.94;2051579;70;20166;-80
2023/05/22 09:27:33;;;;;;;;;;;;;;;27.51;27.69;92472.41;2051462;70;20078;-80
2023/05/22 09:29:59;;;;;;;;;;;;;;;27.09;28.29;92458.91;2051562;70;20094;-77
2023/05/22 09:32:28;;;;;;;;;;;;;;;27.66;28.48;92470.13;2051023;70;20149;-80
2023/05/22 09:34:53;;;;;;;;;;;;;;;28.17;28.54;92463.97;2051536;70;20510;-77
2023/05/22 09:37:19;;;;;;;;;;;;;;;28.62;27.60;92469.38;2051009;70;20100;-80
2023/05/22 09:39:46;;;;;;;;;;;;;;;28.27;27.23;92468.97;2051482;70;20475;-81
2023/05/22 09:42:13;;;;;;;;;;;;;;;28.26;28.42;92464.63;2051392;70;20062;-77
2023/05/22 09:44:41;;;;;;;;;;;;;;;29.36;27.03;92467.06;2051519;70;20046;-78
2023/05/22 09:47:08;;;;;;;;;;;;;;;29.88;26.56;92459.09;2051499;70;20562;-78
2023/05/22 09:49:43;;;;;;;;;;;;;;;29.89;26.10;92456.91;2051524;70;20142;-79
2023/05/22 09:52:11;;;;;;;;;;;;;;;28.96;26.42;92456.72;2051633;70;20426;-77
2023/05/22 09:54:54;;;;;;;;;;;;;;;29.17;26.55;92454.28;2051538;70;20133;-79
2023/05/22 09:57:20;;;;;;;;;;;;;;;30.33;25.78;92449.69;2051500;70;20058;-77
2023/05/22 09:59:58;;;;;;;;;;;;;;;29.15;25.81;92450.69;2051481;70;20047;-78
2023/05/22 10:02:24;;;;;;;;;;;;;;;30.58;26.17;92447.06;2051097;70;20169;-78
2023/05/22 10:04:50;;;;;;;;;;;;;;;29.94;26.27;92437.97;2051479;70;20111;-78
2023/05/22 10:07:21;;;;;;;;;;;;;;;29.45;24.97;92437.97;2051408;70;20157;-76
2023/05/22 10:09:49;;;;;;;;;;;;;;;29.21;26.47;92439.03;2051460;70;20059;-78
2023/05/22 10:12:18;;;;;;;;;;;;;;;29.48;26.10;92437.19;2051325;70;20065;-76
2023/05/22 10:14:44;;;;;;;;;;;;;;;29.82;26.57;92433.06;2051457;70;20094;-76
2023/05/22 10:17:11;;;;;;;;;;;;;;;28.68;27.40;92428.03;2050892;70;20102;-78
2023/05/22 10:19:36;;;;;;;;;;;;;;;29.70;27.17;92423.88;2051492;70;20058;-77
2023/05/22 10:22:03;;;;;;;;;;;;;;;30.61;26.31;92428.13;2051366;70;20220;-77
2023/05/22 10:24:30;;;;;;;;;;;;;;;32.52;23.49;92422.50;2053641;70;20078;-78
2023/05/22 10:26:56;;;;;;;;;;;;;;;32.74;22.78;92421.19;2051280;70;20549;-79
2023/05/22 10:29:24;;;;;;;;;;;;;;;33.36;22.34;92420.22;2051329;70;20525;-80
2023/05/22 10:31:54;;;;;;;;;;;;;;;34.36;20.79;92422.94;2053579;70;20141;-77
2023/05/22 10:34:32;;;;;;;;;;;;;;;35.03;21.88;92414.84;2050994;70;20051;-79
2023/05/22 10:37:18;;;;;;;;;;;;;;;34.57;20.02;92411.31;2051533;70;20458;-77
2023/05/22 10:40:06;;;;;;;;;;;;;;;37.44;17.24;92416.19;2051330;70;20043;-80
2023/05/22 10:42:31;;;;;;;;;;;;;;;40.64;16.05;92418.19;2051434;70;20139;-80
2023/05/22 10:44:59;;;;;;;;;;;;;;;40.76;14.99;92416.06;2052009;69;20047;-79
2023/05/22 10:47:24;;;;;;;;;;;;;;;41.48;14.65;92415.50;2051392;70;20062;-80
2023/05/22 10:50:01;;;;;;;;;;;;;;;41.86;14.25;92415.34;2051860;70;20106;-79
2023/05/22 10:52:26;;;;;;;;;;;;;;;42.23;13.82;92407.13;2051233;70;20047;-80
2023/05/22 10:54:53;;;;;;;;;;;;;;;44.09;12.90;92410.09;2052099;70;20113;-80
2023/05/22 10:57:19;;;;;;;;;;;;;;;45.18;11.74;92402.88;2051758;69;20054;-80
2023/05/22 10:59:47;;;;;;;;;;;;;;;44.58;11.75;92397.66;2052151;69;20483;-78
2023/05/22 11:02:20;;;;;;;;;;;;;;;44.65;12.20;92400.91;2052930;70;20062;-74
2023/05/22 11:04:46;;;;;;;;;;;;;;;47.29;11.05;92399.41;2054697;69;20090;-77
2023/05/22 11:07:13;;;;;;;;;;;;;;;46.93;12.25;92391.28;2055279;69;20545;-74
2023/05/22 11:09:52;;;;;;;;;;;;;;;47.75;10.37;92391.72;2055114;69;20069;-78
2023/05/22 11:12:19;;;;;;;;;;;;;;;48.00;11.46;92381.34;2050888;69;20211;-76
2023/05/22 11:14:55;;;;;;;;;;;;;;;44.62;11.08;92382.53;2050006;69;20059;-78
2023/05/22 11:17:21;;;;;;;;;;;;;;;44.83;11.02;92381.72;2056280;70;20059;-75
2023/05/22 11:20:00;;;;;;;;;;;;;;;46.75;10.89;92381.56;2052959;70;20058;-78
2023/05/22 11:22:48;;;;;;;;;;;;;;;49.03;10.61;92375.91;2051966;69;20161;-78
2023/05/22 11:25:15;;;;;;;;;;;;;;;50.88;10.15;92387.47;2051415;70;20491;-77
2023/05/22 11:27:41;;;;;;;;;;;;;;;50.31;9.47;92381.78;2050033;70;20225;-78
2023/05/22 11:30:07;;;;;;;;;;;;;;;48.88;8.58;92378.81;2051055;70;20050;-79
2023/05/22 11:32:36;;;;;;;;;;;;;;;49.30;10.66;92374.84;2050113;70;20123;-77
2023/05/22 11:35:04;;;;;;;;;;;;;;;47.97;9.02;92371.16;2048527;70;20118;-77
2023/05/22 11:37:29;;;;;;;;;;;;;;;50.66;9.10;92383.69;2049377;70;20051;-78
2023/05/22 11:39:57;;;;;;;;;;;;;;;51.39;8.60;92384.66;2048427;70;20043;-79
2023/05/22 11:42:22;;;;;;;;;;;;;;;52.53;7.74;92372.84;2049525;70;20145;-78
2023/05/22 11:44:48;;;;;;;;;;;;;;;51.50;8.19;92373.00;2051987;70;20075;-77
2023/05/22 11:47:13;;;;;;;;;;;;;;;50.58;7.37;92364.91;2051269;70;20051;-78
2023/05/22 11:49:39;;;;;;;;;;;;;;;52.67;7.80;92364.63;2051178;70;20051;-79
2023/05/22 11:52:06;;;;;;;;;;;;;;;50.26;8.54;92356.81;2051769;69;20076;-76
2023/05/22 11:54:32;;;;;;;;;;;;;;;52.73;7.06;92361.66;2049182;69;20479;-78
2023/05/22 11:56:57;;;;;;;;;;;;;;;51.14;8.00;92347.44;2049109;70;20059;-79
2023/05/22 11:59:23;;;;;;;;;;;;;;;54.85;6.80;92355.47;2047703;70;20062;-76
2023/05/22 12:01:49;;;;;;;;;;;;;;;55.01;7.55;92356.56;2048138;70;20063;-78
2023/05/22 12:04:14;;;;;;;;;;;;;;;53.90;7.90;92352.00;2050881;69;20049;-79
2023/05/22 12:06:40;;;;;;;;;;;;;;;53.38;7.54;92356.91;2050978;69;20098;-79
2023/05/22 12:09:06;;;;;;;;;;;;;;;54.58;7.93;92348.78;2050157;70;20071;-78
2023/05/22 12:11:33;;;;;;;;;;;;;;;54.01;7.10;92346.19;2049180;70;20142;-78
2023/05/22 12:13:59;;;;;;;;;;;;;;;54.17;7.43;92343.66;2051051;69;20077;-76
2023/05/22 12:16:25;;;;;;;;;;;;;;;52.83;6.61;92344.84;2051175;70;20130;-79
2023/05/22 12:18:52;;;;;;;;;;;;;;;51.80;7.55;92321.19;2051652;69;20067;-76
2023/05/22 12:21:19;;;;;;;;;;;;;;;54.66;7.02;92332.75;2051233;70;20142;-77
2023/05/22 12:23:48;;;;;;;;;;;;;;;54.20;6.36;92335.81;2051560;70;20119;-82
2023/05/22 12:26:14;;;;;;;;;;;;;;;51.84;7.13;92321.47;2051563;70;20101;-78
2023/05/22 12:28:39;;;;;;;;;;;;;;;50.70;7.83;92317.38;2051528;70;20193;-77
2023/05/22 12:31:05;;;;;;;;;;;;;;;53.70;7.40;92322.53;2051637;70;20153;-81
2023/05/22 12:33:30;;;;;;;;;;;;;;;54.06;7.11;92326.06;2051493;69;20081;-80
2023/05/22 12:35:59;;;;;;;;;;;;;;;53.92;6.78;92315.63;2049359;70;20554;-77
2023/05/22 12:38:26;;;;;;;;;;;;;;;51.97;7.58;92314.22;2048933;70;20047;-78
2023/05/22 12:40:52;;;;;;;;;;;;;;;45.59;9.37;92288.22;2048169;70;20553;-78
2023/05/22 12:43:17;;;;;;;;;;;;;;;45.98;11.23;92285.13;2048257;70;20051;-77
2023/05/22 12:45:43;;;;;;;;;;;;;;;43.28;11.39;92283.19;2048330;70;20067;-77
2023/05/22 12:48:08;;;;;;;;;;;;;;;41.02;13.43;92281.69;2047648;70;20522;-79
2023/05/22 12:50:34;;;;;;;;;;;;;;;40.12;12.84;92272.28;2048111;70;20053;-78